BM-0002 weather

CLOSED Naval Air Station Bermuda Annex
Morgan's Point, Bermuda

Public forecast

Using degrees Celsius for public forecast. Weather courtesy of forecast.io.

METAR (pilot weather report)

Closest report is L.F. Wade International International Airport, 10.4 nm (19.3 km) ENE. Retrieved 2019/01/17 07:55 UTC (40 minutes ago):

TXKF 170755Z 03002KT 9999 FEW040 BKN300 14/12 Q1021

TAF (pilot weather forecast)

Closest forecast is L.F. Wade International International Airport, 10.4 nm (19.3 km) ENE. Retrieved 2019/01/17 06:38 UTC (2 hours ago):

TAF TXKF 170531Z 1706/1806 VRB05KT 9999 VCSH FEW044 SCT080